createdAt,value
2022-10-01T00:01:48.806Z,986.3
2022-10-01T00:07:07.292Z,986.3
2022-10-01T00:12:27.430Z,986.4
2022-10-01T00:17:46.061Z,986.3
2022-10-01T00:23:05.293Z,986.2
2022-10-01T00:28:25.094Z,986.2
2022-10-01T00:33:42.999Z,986.2
2022-10-01T00:39:02.743Z,986.1
2022-10-01T00:44:23.104Z,986
2022-10-01T00:49:41.508Z,986.1
2022-10-01T00:55:01.889Z,986.2
2022-10-01T01:01:36.432Z,986.2
2022-10-01T01:05:51.453Z,986.3
2022-10-01T01:11:00.796Z,986.3
2022-10-01T01:16:19.794Z,986.3
2022-10-01T01:21:39.849Z,986.2
2022-10-01T01:26:58.371Z,986.2
2022-10-01T01:32:17.636Z,986.1
2022-10-01T01:37:37.213Z,986
2022-10-01T01:42:56.875Z,986
2022-10-01T01:48:15.029Z,985.8
2022-10-01T01:53:34.989Z,985.6
2022-10-01T01:58:53.228Z,985.6
2022-10-01T02:04:13.153Z,985.5
2022-10-01T02:10:47.293Z,985.4
2022-10-01T02:14:52.282Z,985.3
2022-10-01T02:20:11.232Z,985.2
2022-10-01T02:25:30.338Z,985.2
2022-10-01T02:30:49.323Z,985.2
2022-10-01T02:36:08.617Z,985.1
2022-10-01T02:41:28.411Z,985.1
2022-10-01T02:46:55.004Z,985.2
2022-10-01T02:52:06.230Z,985.1
2022-10-01T02:57:25.432Z,985.2
2022-10-01T03:02:45.784Z,985.1
2022-10-01T03:08:03.994Z,985
2022-10-01T03:13:23.292Z,985.1
2022-10-01T03:18:43.843Z,984.9
2022-10-01T03:24:02.628Z,984.8
2022-10-01T03:29:21.521Z,984.7
2022-10-01T03:34:40.903Z,984.7
2022-10-01T03:39:59.818Z,984.7
2022-10-01T03:45:19.773Z,984.8
2022-10-01T03:50:39.034Z,984.8
2022-10-01T03:55:58.378Z,984.7
2022-10-01T04:01:17.860Z,984.7
2022-10-01T04:06:36.826Z,984.6
2022-10-01T04:11:56.148Z,984.5
2022-10-01T04:17:15.382Z,984.5
2022-10-01T04:22:34.132Z,984.5
2022-10-01T04:27:53.156Z,984.6
2022-10-01T04:33:12.258Z,984.5
2022-10-01T04:38:31.073Z,984.4
2022-10-01T04:43:49.832Z,984.4
2022-10-01T04:49:09.040Z,984.4
2022-10-01T04:54:28.225Z,984.4
2022-10-01T04:59:47.455Z,984.4
2022-10-01T05:05:06.724Z,984.4
2022-10-01T05:10:26.318Z,984.3
2022-10-01T05:15:45.916Z,984.3
2022-10-01T05:21:05.003Z,984.3
2022-10-01T05:26:23.821Z,984.2
2022-10-01T05:31:43.297Z,984.2
2022-10-01T05:37:02.704Z,984.1
2022-10-01T05:43:36.923Z,984
2022-10-01T05:47:53.427Z,983.9
2022-10-01T05:53:02.853Z,983.9
2022-10-01T05:58:21.712Z,983.9
2022-10-01T06:03:39.993Z,984
2022-10-01T06:08:58.697Z,984
2022-10-01T06:14:16.512Z,984
2022-10-01T06:19:35.919Z,984
2022-10-01T06:24:56.813Z,984.1
2022-10-01T06:30:15.347Z,984
2022-10-01T06:35:34.202Z,984
2022-10-01T06:40:52.675Z,983.9
2022-10-01T06:46:12.305Z,983.9
2022-10-01T06:51:31.832Z,983.8
2022-10-01T06:56:49.640Z,983.8
2022-10-01T07:02:08.601Z,983.8
2022-10-01T07:07:30.049Z,983.8
2022-10-01T07:12:46.591Z,983.8
2022-10-01T07:18:06.125Z,983.8
2022-10-01T07:23:24.484Z,983.7
2022-10-01T07:28:44.297Z,983.7
2022-10-01T07:34:03.098Z,983.6
2022-10-01T07:39:23.344Z,983.6
2022-10-01T07:44:42.209Z,983.7
2022-10-01T07:50:01.771Z,983.7
2022-10-01T07:55:21.966Z,983.6
2022-10-01T08:01:56.161Z,983.6
2022-10-01T08:05:59.651Z,983.7
2022-10-01T08:11:18.740Z,983.5
2022-10-01T08:16:38.117Z,983.5
2022-10-01T08:21:57.749Z,983.5
2022-10-01T08:28:31.946Z,983.4
2022-10-01T08:32:46.525Z,983.6
2022-10-01T08:37:55.901Z,983.6
2022-10-01T08:43:14.643Z,983.5
2022-10-01T08:48:34.178Z,983.6
2022-10-01T08:53:53.023Z,983.6
2022-10-01T08:59:12.849Z,983.7
2022-10-01T09:04:31.278Z,983.7
2022-10-01T09:09:51.615Z,983.7
2022-10-01T09:16:25.844Z,983.8
2022-10-01T09:20:29.538Z,983.7
2022-10-01T09:27:28.128Z,983.7
2022-10-01T09:27:56.117Z,983.7
2022-10-01T09:38:34.643Z,983.7
2022-10-01T09:43:53.566Z,983.7
2022-10-01T09:49:12.644Z,983.7
2022-10-01T09:54:31.249Z,983.8
2022-10-01T10:03:04.485Z,983.8
2022-10-01T10:10:27.870Z,983.9
2022-10-01T10:17:26.484Z,983.6
2022-10-01T10:21:07.542Z,983.7
2022-10-01T10:33:24.444Z,983.7
2022-10-01T10:37:04.528Z,983.7
2022-10-01T10:44:38.403Z,983.7
2022-10-01T10:48:18.524Z,983.6
2022-10-01T10:53:02.578Z,983.5
2022-10-01T10:59:36.737Z,983.5
2022-10-01T11:03:53.276Z,983.5
2022-10-01T11:12:26.327Z,983.6
2022-10-01T11:16:41.701Z,983.5
2022-10-01T11:30:17.308Z,983.4
2022-10-01T11:40:55.963Z,983.4
2022-10-01T11:49:29.011Z,983.4
2022-10-01T11:53:45.568Z,983.4
2022-10-01T11:56:53.870Z,983.4
2022-10-01T12:02:13.610Z,983.6
2022-10-01T12:10:46.644Z,983.6
2022-10-01T12:19:19.691Z,983.7
2022-10-01T12:28:52.174Z,983.6
2022-10-01T12:34:06.625Z,983.7
2022-10-01T12:39:25.893Z,983.8
2022-10-01T12:44:45.224Z,983.8
2022-10-01T12:50:03.104Z,983.7
2022-10-01T12:55:22.399Z,983.8
2022-10-01T13:00:42.620Z,983.8
2022-10-01T13:07:16.740Z,983.8
2022-10-01T13:16:41.978Z,983.9
2022-10-01T13:21:59.663Z,984
2022-10-01T13:28:58.321Z,984
2022-10-01T13:37:58.724Z,983.9
2022-10-01T13:46:31.919Z,983.9
2022-10-01T13:55:04.860Z,984.1
2022-10-01T14:04:34.879Z,984.1
2022-10-01T14:09:54.122Z,984.1
2022-10-01T14:15:13.558Z,984.2
2022-10-01T14:20:31.181Z,984.1
2022-10-01T14:25:53.595Z,984.1
2022-10-01T14:31:09.677Z,984.2
2022-10-01T14:37:43.835Z,984.2
2022-10-01T14:41:49.387Z,984.2
2022-10-01T14:50:22.376Z,984.2
2022-10-01T14:52:27.372Z,984.2
2022-10-01T14:57:46.241Z,984
2022-10-01T15:03:05.247Z,984.1
2022-10-01T15:09:39.411Z,984.2
2022-10-01T15:13:44.291Z,984.2
2022-10-01T15:19:02.072Z,984.3
2022-10-01T15:24:30.877Z,984.2
2022-10-01T15:29:41.005Z,984.1
2022-10-01T15:36:15.206Z,984.2
2022-10-01T15:40:20.658Z,984.3
2022-10-01T15:45:38.281Z,984.2
2022-10-01T15:50:58.339Z,984.3
2022-10-01T15:56:17.280Z,984.4
2022-10-01T16:02:51.432Z,984.4
2022-10-01T16:12:17.109Z,984.6
2022-10-01T16:20:51.075Z,984.7
2022-10-01T16:25:04.779Z,984.8
2022-10-01T16:28:38.302Z,984.9
2022-10-01T16:35:12.456Z,984.8
2022-10-01T16:38:52.884Z,984.8
2022-10-01T16:47:25.984Z,985
2022-10-01T16:55:59.042Z,985.1
2022-10-01T17:00:09.208Z,985.3
2022-10-01T17:05:28.088Z,985.3
2022-10-01T17:21:26.327Z,985.5
2022-10-01T17:26:45.601Z,985.7
2022-10-01T17:32:03.612Z,985.8
2022-10-01T17:37:22.642Z,985.8
2022-10-01T17:42:41.864Z,985.8
2022-10-01T17:48:01.397Z,985.9
2022-10-01T17:53:20.800Z,986.1
2022-10-01T17:58:42.930Z,986
2022-10-01T18:03:59.043Z,986.1
2022-10-01T18:09:18.730Z,986.2
2022-10-01T18:14:38.066Z,986.3
2022-10-01T18:19:56.091Z,986.3
2022-10-01T18:25:16.047Z,986.4
2022-10-01T18:30:35.398Z,986.4
2022-10-01T18:35:54.925Z,986.4
2022-10-01T18:41:13.935Z,986.6
2022-10-01T18:47:48.149Z,986.7
2022-10-01T18:51:53.101Z,986.8
2022-10-01T18:57:10.820Z,986.9
2022-10-01T19:02:30.380Z,987
2022-10-01T19:07:49.784Z,987
2022-10-01T19:13:08.876Z,987.1
2022-10-01T19:18:27.438Z,987.2
2022-10-01T19:23:46.572Z,987.1
2022-10-01T19:29:06.005Z,987.2
2022-10-01T19:34:25.748Z,987.3
2022-10-01T19:39:45.353Z,987.6
2022-10-01T19:45:04.292Z,987.6
2022-10-01T19:50:23.883Z,987.7
2022-10-01T19:55:42.042Z,987.9
2022-10-01T20:01:02.398Z,987.9
2022-10-01T20:07:36.529Z,988.1
2022-10-01T20:11:42.275Z,988.1
2022-10-01T20:16:59.313Z,988.2
2022-10-01T20:22:19.573Z,988.3
2022-10-01T20:27:38.760Z,988.4
2022-10-01T20:32:57.725Z,988.6
2022-10-01T20:38:17.997Z,988.6
2022-10-01T20:43:37.408Z,988.6
2022-10-01T20:48:56.034Z,988.7
2022-10-01T20:54:15.826Z,988.7
2022-10-01T20:59:34.489Z,988.8
2022-10-01T21:04:54.549Z,988.8
2022-10-01T21:11:28.695Z,988.9
2022-10-01T21:20:53.658Z,989.1
2022-10-01T21:26:19.273Z,989.3
2022-10-01T21:31:31.279Z,989.3
2022-10-01T21:38:05.394Z,989.4
2022-10-01T21:47:30.597Z,989.6
2022-10-01T21:52:50.314Z,989.7
2022-10-01T21:58:09.992Z,989.7
2022-10-01T22:03:29.761Z,989.8
2022-10-01T22:08:49.164Z,989.8
2022-10-01T22:14:07.993Z,989.9
2022-10-01T22:19:26.347Z,990
2022-10-01T22:26:24.905Z,990
2022-10-01T22:37:38.917Z,990.2
2022-10-01T22:46:03.418Z,990.3
2022-10-01T22:51:20.783Z,990.3
2022-10-01T22:56:41.125Z,990.3
2022-10-01T23:01:59.921Z,990.3
2022-10-01T23:08:34.070Z,990.4
2022-10-01T23:12:38.997Z,990.5
2022-10-01T23:17:57.792Z,990.6
2022-10-01T23:23:16.641Z,990.6
2022-10-01T23:31:49.794Z,990.5
2022-10-01T23:40:22.786Z,990.8
2022-10-01T23:44:32.107Z,990.8
2022-10-01T23:49:51.364Z,991
2022-10-01T23:55:09.879Z,991.1
